Time;durP1;ratioP1;P1;durP2;ratioP2;P2;SDS_P1;SDS_P2;PMS_P1;PMS_P2;Temp;Humidity;BMP_temperature;BMP_pressure;BME280_temperature;BME280_humidity;BME280_pressure;Samples;Min_cycle;Max_cycle;Signal;HPM_P1;HPM_P2
2022/01/04 00:01:01;;;;;;;2.20;0.60;;;11.30;99.90;;;;;;5083127;28;20047;-79
2022/01/04 00:03:26;;;;;;;1.60;0.52;;;11.30;99.90;;;;;;5081912;28;20272;-79
2022/01/04 00:05:52;;;;;;;2.85;0.50;;;11.30;99.90;;;;;;5083719;28;20021;-79
2022/01/04 00:08:18;;;;;;;3.08;0.60;;;11.30;99.90;;;;;;5084018;28;20020;-78
2022/01/04 00:10:44;;;;;;;1.75;0.50;;;11.30;99.90;;;;;;5083443;28;20036;-78
2022/01/04 00:13:23;;;;;;;2.17;0.50;;;11.30;99.90;;;;;;5083052;28;20311;-78
2022/01/04 00:15:56;;;;;;;2.95;0.50;;;11.30;99.90;;;;;;5078139;28;20046;-77
2022/01/04 00:18:23;;;;;;;2.88;0.50;;;11.30;99.90;;;;;;5083787;28;20056;-80
2022/01/04 00:20:49;;;;;;;2.40;0.73;;;11.30;99.90;;;;;;5083165;28;20356;-78
2022/01/04 00:23:16;;;;;;;2.85;0.60;;;11.20;99.90;;;;;;5083584;28;20028;-79
2022/01/04 00:25:42;;;;;;;1.92;0.60;;;11.30;99.90;;;;;;5083408;28;20053;-78
2022/01/04 00:28:08;;;;;;;2.45;0.70;;;11.20;99.90;;;;;;5083070;28;20056;-78
2022/01/04 00:30:38;;;;;;;2.45;0.70;;;11.20;99.90;;;;;;5082781;28;20052;-78
2022/01/04 00:33:05;;;;;;;2.75;0.60;;;11.20;99.90;;;;;;5083358;28;20055;-78
2022/01/04 00:35:31;;;;;;;3.33;0.85;;;11.10;99.90;;;;;;5065901;28;20028;-79
2022/01/04 00:37:57;;;;;;;2.83;0.70;;;11.10;99.90;;;;;;5077481;28;20036;-78
2022/01/04 00:40:24;;;;;;;2.92;0.80;;;11.10;99.90;;;;;;5065660;28;20373;-77
2022/01/04 00:42:51;;;;;;;2.35;0.50;;;11.10;99.90;;;;;;5065271;28;20047;-77
2022/01/04 00:45:18;;;;;;;1.95;0.75;;;11.00;99.90;;;;;;5082550;28;20252;-79
2022/01/04 00:49:09;;;;;;;2.30;0.70;;;11.00;99.90;;;;;;5082970;28;20031;-78
2022/01/04 00:50:30;;;;;;;2.28;0.47;;;11.00;99.90;;;;;;5082852;28;20629;-77
2022/01/04 00:52:57;;;;;;;2.35;0.70;;;11.00;99.90;;;;;;5082264;28;20020;-77
2022/01/04 00:55:23;;;;;;;1.67;0.50;;;10.90;99.90;;;;;;5082841;28;20089;-77
2022/01/04 00:57:49;;;;;;;2.85;0.60;;;10.90;99.90;;;;;;5077357;28;20020;-79
2022/01/04 01:00:16;;;;;;;2.40;0.60;;;10.90;99.90;;;;;;5062983;28;20036;-78
2022/01/04 01:02:43;;;;;;;2.10;0.70;;;10.80;99.90;;;;;;5061437;28;20200;-78
2022/01/04 01:05:10;;;;;;;2.30;0.60;;;10.90;99.90;;;;;;5060507;28;20506;-78
2022/01/04 01:07:36;;;;;;;4.60;0.70;;;10.90;99.90;;;;;;5062319;28;20048;-79
2022/01/04 01:12:34;;;;;;;3.03;0.70;;;10.80;99.90;;;;;;5045033;28;20033;-79
2022/01/04 01:15:00;;;;;;;1.63;0.40;;;10.80;99.90;;;;;;5061976;28;20045;-78
2022/01/04 01:17:25;;;;;;;2.65;0.68;;;10.80;99.90;;;;;;5045626;28;20059;-79
2022/01/04 01:19:51;;;;;;;1.88;0.50;;;10.80;99.90;;;;;;5062688;28;20143;-79
2022/01/04 01:22:17;;;;;;;1.65;0.63;;;10.80;99.90;;;;;;5062798;28;20033;-78
2022/01/04 01:24:43;;;;;;;2.20;0.70;;;10.80;99.90;;;;;;5045079;28;20029;-79
2022/01/04 01:27:08;;;;;;;2.63;0.50;;;10.80;99.90;;;;;;5062176;28;20037;-79
2022/01/04 01:29:34;;;;;;;3.03;1.08;;;10.80;99.90;;;;;;5045105;28;20334;-78
2022/01/04 01:32:00;;;;;;;1.85;0.47;;;10.80;99.90;;;;;;5044315;28;20041;-78
2022/01/04 01:34:26;;;;;;;3.40;1.00;;;10.70;99.90;;;;;;5063065;28;20082;-78
2022/01/04 01:36:52;;;;;;;2.95;0.52;;;10.70;99.90;;;;;;5044622;28;20044;-79
2022/01/04 01:39:18;;;;;;;1.67;0.60;;;10.70;99.90;;;;;;5066469;28;20072;-81
2022/01/04 01:41:44;;;;;;;2.35;0.70;;;10.70;99.90;;;;;;5062495;28;20036;-80
2022/01/04 01:44:09;;;;;;;1.80;0.60;;;10.70;99.90;;;;;;5062227;28;20094;-77
2022/01/04 01:46:35;;;;;;;2.08;0.60;;;10.70;99.90;;;;;;5062606;28;20029;-78
2022/01/04 01:49:01;;;;;;;2.47;0.70;;;10.70;99.90;;;;;;5061710;28;20320;-78
2022/01/04 01:51:28;;;;;;;1.83;0.60;;;10.60;99.90;;;;;;5044665;28;20031;-77
2022/01/04 01:53:54;;;;;;;2.28;0.70;;;10.60;99.90;;;;;;5062085;28;20037;-78
2022/01/04 01:56:20;;;;;;;1.70;0.73;;;10.50;99.90;;;;;;5046131;28;20039;-78
2022/01/04 01:58:46;;;;;;;4.40;0.75;;;10.50;99.90;;;;;;5044692;28;20148;-77
2022/01/04 02:01:12;;;;;;;2.40;0.65;;;10.40;99.90;;;;;;5047344;28;20052;-77
2022/01/04 02:03:38;;;;;;;2.28;0.70;;;10.30;99.90;;;;;;5044626;28;20048;-78
2022/01/04 02:06:04;;;;;;;1.98;0.80;;;10.30;99.90;;;;;;5061839;28;20059;-78
2022/01/04 02:08:30;;;;;;;2.03;0.63;;;10.20;99.90;;;;;;5062407;28;20013;-77
2022/01/04 02:11:00;;;;;;;2.30;1.00;;;10.20;99.90;;;;;;5061456;28;20044;-78
2022/01/04 02:13:27;;;;;;;3.22;1.35;;;10.20;99.90;;;;;;5044456;28;20219;-78
2022/01/04 02:15:56;;;;;;;2.70;0.90;;;10.20;99.90;;;;;;5062601;28;20060;-79
2022/01/04 02:18:22;;;;;;;2.63;0.82;;;10.20;99.90;;;;;;5062505;28;20025;-79
2022/01/04 02:20:48;;;;;;;1.90;0.88;;;10.20;99.90;;;;;;5044384;28;20032;-79
2022/01/04 02:23:14;;;;;;;3.67;1.00;;;10.20;99.90;;;;;;5047223;28;20048;-79
2022/01/04 02:25:41;;;;;;;1.92;0.75;;;10.30;99.90;;;;;;5065861;28;20123;-80
2022/01/04 02:28:06;;;;;;;2.08;0.70;;;10.30;99.90;;;;;;5066511;28;20040;-80
2022/01/04 02:30:33;;;;;;;3.72;0.90;;;10.40;99.90;;;;;;5066533;28;20036;-80
2022/01/04 02:32:59;;;;;;;2.85;1.20;;;10.40;99.90;;;;;;5065920;28;20025;-77
2022/01/04 02:35:32;;;;;;;2.58;0.95;;;10.40;99.90;;;;;;5048243;28;20043;-77
2022/01/04 02:37:59;;;;;;;2.30;0.90;;;10.50;99.90;;;;;;5047797;28;20296;-78
2022/01/04 02:40:26;;;;;;;2.25;1.00;;;10.40;99.90;;;;;;5066475;28;20037;-78
2022/01/04 02:42:53;;;;;;;2.25;0.90;;;10.40;99.90;;;;;;5081721;28;20020;-78
2022/01/04 02:45:20;;;;;;;3.67;0.80;;;10.40;99.90;;;;;;5085686;28;20219;-78
2022/01/04 02:47:45;;;;;;;2.17;0.95;;;10.30;99.90;;;;;;5086089;28;20057;-78
2022/01/04 02:50:11;;;;;;;1.95;1.00;;;10.30;99.90;;;;;;5067747;28;20032;-77
2022/01/04 02:52:38;;;;;;;4.97;1.20;;;10.30;99.90;;;;;;5085911;28;20327;-77
2022/01/04 02:55:09;;;;;;;2.25;1.10;;;10.30;99.90;;;;;;5084718;28;20089;-77
2022/01/04 02:57:36;;;;;;;1.83;0.98;;;10.30;99.90;;;;;;5085787;28;20298;-78
2022/01/04 03:00:04;;;;;;;2.63;0.90;;;10.30;99.90;;;;;;5085298;28;20024;-78
2022/01/04 03:02:30;;;;;;;2.75;1.30;;;10.40;99.90;;;;;;5077090;28;20021;-79
2022/01/04 03:04:55;;;;;;;3.08;1.13;;;10.30;99.90;;;;;;5048197;28;20037;-79
2022/01/04 03:07:22;;;;;;;3.08;1.00;;;10.40;99.90;;;;;;5047424;28;20094;-78
2022/01/04 03:09:47;;;;;;;3.60;1.15;;;10.40;99.90;;;;;;5064956;28;20036;-79
2022/01/04 03:12:13;;;;;;;3.35;1.13;;;10.40;99.90;;;;;;5047029;28;20100;-77
2022/01/04 03:14:39;;;;;;;3.58;1.10;;;10.40;99.90;;;;;;5064760;28;20100;-77
2022/01/04 03:17:05;;;;;;;3.30;1.10;;;10.40;99.90;;;;;;5064170;28;20181;-77
2022/01/04 03:19:31;;;;;;;2.35;0.90;;;10.40;99.90;;;;;;5064927;28;20036;-77
2022/01/04 03:21:57;;;;;;;2.08;1.00;;;10.40;99.90;;;;;;5064871;28;20048;-80
2022/01/04 03:24:23;;;;;;;3.97;1.27;;;10.40;99.90;;;;;;5081154;28;20063;-79
2022/01/04 03:26:48;;;;;;;2.20;0.93;;;10.50;99.90;;;;;;5085744;28;20055;-79
2022/01/04 03:29:15;;;;;;;2.42;1.17;;;10.60;99.90;;;;;;5067069;28;20040;-79
2022/01/04 03:31:42;;;;;;;4.07;1.30;;;10.50;99.90;;;;;;5084925;28;20214;-79
2022/01/04 03:34:09;;;;;;;2.83;1.00;;;10.60;99.90;;;;;;5083722;28;20036;-80
2022/01/04 03:36:35;;;;;;;3.53;1.15;;;10.60;99.90;;;;;;5085664;28;20219;-79
2022/01/04 03:39:04;;;;;;;2.97;1.10;;;10.60;99.90;;;;;;5085766;28;20028;-80
2022/01/04 03:41:31;;;;;;;2.30;1.17;;;10.60;99.90;;;;;;5085759;28;20016;-79
2022/01/04 03:43:57;;;;;;;2.78;1.17;;;10.60;99.90;;;;;;5059152;28;20083;-79
2022/01/04 03:46:23;;;;;;;1.85;0.75;;;10.60;99.90;;;;;;5064191;28;20216;-78
2022/01/04 03:48:49;;;;;;;2.05;0.80;;;10.60;99.90;;;;;;5046849;28;20056;-77
2022/01/04 03:51:15;;;;;;;2.88;1.00;;;10.60;99.90;;;;;;5046453;28;20247;-78
2022/01/04 03:53:41;;;;;;;3.28;0.93;;;10.70;99.90;;;;;;5064229;28;20021;-78
2022/01/04 03:56:07;;;;;;;4.70;1.08;;;10.70;99.90;;;;;;5063852;28;20087;-77
2022/01/04 03:58:34;;;;;;;2.25;0.90;;;10.80;99.90;;;;;;5064236;28;20039;-77
2022/01/04 04:01:01;;;;;;;3.00;1.10;;;10.90;99.90;;;;;;5045866;28;20037;-77
2022/01/04 04:03:26;;;;;;;1.98;0.80;;;10.90;99.90;;;;;;5064373;28;20053;-78
2022/01/04 04:05:52;;;;;;;1.95;0.80;;;10.90;99.90;;;;;;5080261;28;20036;-79
2022/01/04 04:08:18;;;;;;;2.38;0.80;;;10.90;99.90;;;;;;5084333;28;20025;-79
2022/01/04 04:10:44;;;;;;;1.73;0.68;;;11.00;99.90;;;;;;5084488;28;20029;-79
2022/01/04 04:13:10;;;;;;;1.98;0.80;;;11.10;99.90;;;;;;5084127;28;20078;-79
2022/01/04 04:15:38;;;;;;;4.50;0.80;;;11.10;99.90;;;;;;5066810;28;20025;-79
2022/01/04 04:18:04;;;;;;;1.30;0.50;;;11.10;99.90;;;;;;5084282;28;20040;-79
2022/01/04 04:20:29;;;;;;;1.95;0.60;;;11.10;99.90;;;;;;5084631;28;20322;-78
2022/01/04 04:22:55;;;;;;;3.42;1.00;;;11.20;99.90;;;;;;5066810;28;20134;-78
2022/01/04 04:25:21;;;;;;;2.55;0.60;;;11.30;99.90;;;;;;5078020;28;20255;-79
2022/01/04 04:27:47;;;;;;;1.77;0.52;;;11.40;99.90;;;;;;5066470;28;20032;-78
2022/01/04 04:30:13;;;;;;;0.90;0.35;;;11.40;99.90;;;;;;5083550;28;20326;-78
2022/01/04 04:32:38;;;;;;;1.83;0.68;;;11.40;99.90;;;;;;5084211;28;20028;-79
2022/01/04 04:35:04;;;;;;;2.90;0.50;;;11.40;99.90;;;;;;5084197;28;20036;-78
2022/01/04 04:37:30;;;;;;;1.30;0.50;;;11.30;99.90;;;;;;5084535;28;20032;-78
2022/01/04 04:39:56;;;;;;;2.67;0.90;;;11.20;99.90;;;;;;5084342;28;20040;-78
2022/01/04 04:42:22;;;;;;;1.95;0.55;;;11.20;99.90;;;;;;5084146;28;20449;-79
2022/01/04 04:44:48;;;;;;;1.63;0.95;;;11.10;99.90;;;;;;5083506;28;20247;-78
2022/01/04 04:47:14;;;;;;;0.80;0.40;;;11.10;99.90;;;;;;5066650;28;20068;-79
2022/01/04 04:49:40;;;;;;;2.63;0.57;;;11.10;99.90;;;;;;5064517;28;20041;-78
2022/01/04 04:52:06;;;;;;;1.00;0.50;;;11.10;99.90;;;;;;5063333;28;20096;-79
2022/01/04 04:54:32;;;;;;;3.53;0.65;;;11.20;99.90;;;;;;5046284;28;20029;-79
2022/01/04 04:56:57;;;;;;;2.65;0.63;;;11.20;99.90;;;;;;5063687;28;20028;-79
2022/01/04 04:59:23;;;;;;;1.38;0.57;;;11.20;99.90;;;;;;5045457;28;20331;-78
2022/01/04 05:01:49;;;;;;;1.83;0.60;;;11.20;99.90;;;;;;5046260;28;20099;-79
2022/01/04 05:04:15;;;;;;;3.30;0.80;;;11.20;99.90;;;;;;5063412;28;20079;-79
2022/01/04 05:06:41;;;;;;;2.53;0.50;;;11.20;99.90;;;;;;5068152;28;20091;-79
2022/01/04 05:09:07;;;;;;;3.00;0.63;;;11.20;99.90;;;;;;5083278;28;20082;-79
2022/01/04 05:11:33;;;;;;;1.17;0.60;;;11.20;99.90;;;;;;5083516;28;20032;-79
2022/01/04 05:13:59;;;;;;;1.50;0.57;;;11.10;99.90;;;;;;5065865;28;20311;-78
2022/01/04 05:16:24;;;;;;;1.58;0.60;;;11.30;99.90;;;;;;5065246;28;20227;-79
2022/01/04 05:18:50;;;;;;;1.30;0.60;;;11.30;99.90;;;;;;5048646;28;20029;-79
2022/01/04 05:21:16;;;;;;;1.70;0.60;;;11.20;99.90;;;;;;5083378;28;20049;-79
2022/01/04 05:23:42;;;;;;;4.38;0.85;;;11.10;99.90;;;;;;5084080;28;20052;-79
2022/01/04 05:26:08;;;;;;;2.47;0.68;;;11.10;99.90;;;;;;5082682;28;20041;-79
2022/01/04 05:28:34;;;;;;;3.13;0.60;;;11.00;99.90;;;;;;5048335;28;20067;-79
2022/01/04 05:31:00;;;;;;;2.00;0.70;;;10.90;99.90;;;;;;5063115;28;20032;-80
2022/01/04 05:33:26;;;;;;;1.85;0.70;;;10.80;99.90;;;;;;5062986;28;20033;-79
2022/01/04 05:35:53;;;;;;;1.73;0.70;;;10.80;99.90;;;;;;5063281;28;20269;-79
2022/01/04 05:38:19;;;;;;;1.50;0.60;;;10.80;99.90;;;;;;5045020;28;20037;-78
2022/01/04 05:40:45;;;;;;;2.35;0.82;;;10.70;99.90;;;;;;5063202;28;20029;-79
2022/01/04 05:43:11;;;;;;;2.92;0.70;;;10.70;99.90;;;;;;5044239;28;20038;-79
2022/01/04 05:45:37;;;;;;;2.40;0.85;;;10.70;99.90;;;;;;5062583;28;20100;-79
2022/01/04 05:48:02;;;;;;;2.38;0.75;;;10.70;99.90;;;;;;5064813;28;20047;-79
2022/01/04 05:50:30;;;;;;;1.75;0.65;;;10.80;99.90;;;;;;5064329;28;20043;-79
2022/01/04 05:52:56;;;;;;;3.40;0.80;;;10.80;99.90;;;;;;5064726;28;20055;-79
2022/01/04 05:55:21;;;;;;;2.10;0.60;;;10.80;99.90;;;;;;5082103;28;20107;-79
2022/01/04 05:57:47;;;;;;;1.65;0.80;;;10.70;99.90;;;;;;5064567;28;20028;-79
2022/01/04 06:00:14;;;;;;;2.53;0.90;;;10.80;99.90;;;;;;5082608;28;20036;-80
2022/01/04 06:02:40;;;;;;;2.03;0.50;;;10.80;99.90;;;;;;5063194;28;20084;-79
2022/01/04 06:05:06;;;;;;;2.25;0.98;;;10.70;99.90;;;;;;5082776;28;20016;-79
2022/01/04 06:07:32;;;;;;;2.72;0.73;;;10.80;99.90;;;;;;5081810;28;20032;-79
2022/01/04 06:09:57;;;;;;;2.55;0.90;;;10.70;99.90;;;;;;5073601;28;20036;-79
2022/01/04 06:14:53;;;;;;;1.63;0.60;;;10.80;99.90;;;;;;5082367;28;20223;-79
2022/01/04 06:17:20;;;;;;;1.52;0.60;;;10.70;99.90;;;;;;5081300;28;20040;-79
2022/01/04 06:19:46;;;;;;;2.08;0.90;;;10.70;99.90;;;;;;5082006;28;20040;-79
2022/01/04 06:22:11;;;;;;;1.83;0.77;;;10.70;99.90;;;;;;5081376;28;20092;-79
2022/01/04 06:24:38;;;;;;;2.30;0.45;;;10.60;99.90;;;;;;5082039;28;20033;-80
2022/01/04 06:27:08;;;;;;;3.58;0.90;;;10.70;99.90;;;;;;5081649;28;20342;-79
2022/01/04 06:29:35;;;;;;;2.08;0.70;;;10.60;99.90;;;;;;5077537;28;20051;-79
2022/01/04 06:32:01;;;;;;;1.52;0.70;;;10.60;99.90;;;;;;5061660;28;20033;-79
2022/01/04 06:34:27;;;;;;;4.00;1.00;;;10.50;99.90;;;;;;5061966;28;20017;-79
2022/01/04 06:36:53;;;;;;;4.85;1.25;;;10.50;99.90;;;;;;5078500;28;20036;-79
2022/01/04 06:39:18;;;;;;;2.30;1.10;;;10.40;99.90;;;;;;5063870;28;20199;-79
2022/01/04 06:41:44;;;;;;;4.53;1.23;;;10.30;99.90;;;;;;5081802;28;20309;-79
2022/01/04 06:44:10;;;;;;;3.17;1.20;;;10.30;99.90;;;;;;5063639;28;20037;-80
2022/01/04 06:46:38;;;;;;;4.07;1.25;;;10.30;99.90;;;;;;5064055;28;20112;-79
2022/01/04 06:49:04;;;;;;;4.93;1.47;;;10.30;99.90;;;;;;5081660;28;20039;-78
2022/01/04 06:51:30;;;;;;;2.10;1.05;;;10.30;99.90;;;;;;5049038;28;20381;-78
2022/01/04 06:53:56;;;;;;;2.10;0.73;;;10.30;99.90;;;;;;5061668;28;20017;-77
2022/01/04 06:56:21;;;;;;;2.63;1.05;;;10.40;99.90;;;;;;5061412;28;20064;-78
2022/01/04 06:58:48;;;;;;;2.30;1.08;;;10.40;99.90;;;;;;5061814;28;20065;-78
2022/01/04 07:01:13;;;;;;;2.30;0.90;;;10.30;99.90;;;;;;5060766;28;20044;-78
2022/01/04 07:03:39;;;;;;;3.50;0.70;;;10.40;99.90;;;;;;5044130;28;20036;-78
2022/01/04 07:06:06;;;;;;;2.00;0.70;;;10.50;99.90;;;;;;5061757;28;20061;-78
2022/01/04 07:08:32;;;;;;;1.65;0.60;;;10.50;99.90;;;;;;5063112;28;20316;-78
2022/01/04 07:10:57;;;;;;;1.42;0.50;;;10.60;99.90;;;;;;5055115;28;20070;-80
2022/01/04 07:13:23;;;;;;;2.30;0.70;;;10.60;99.90;;;;;;5086177;28;20032;-78
2022/01/04 07:15:50;;;;;;;2.15;0.80;;;10.60;99.90;;;;;;5084567;28;20032;-78
2022/01/04 07:18:16;;;;;;;3.60;0.80;;;10.50;99.90;;;;;;5084720;28;20371;-77
2022/01/04 07:20:42;;;;;;;3.05;0.70;;;10.60;99.90;;;;;;5067187;28;20035;-78
2022/01/04 07:23:08;;;;;;;1.60;0.60;;;10.50;99.90;;;;;;5050553;28;20036;-78
2022/01/04 07:25:34;;;;;;;2.70;0.77;;;10.50;99.90;;;;;;5084122;28;20228;-77
2022/01/04 07:28:00;;;;;;;2.35;0.63;;;10.50;99.90;;;;;;5084823;28;20039;-78
2022/01/04 07:30:25;;;;;;;2.88;0.68;;;10.60;99.90;;;;;;5087069;28;20277;-78
2022/01/04 07:32:51;;;;;;;2.38;0.60;;;10.60;99.90;;;;;;5091267;28;20367;-78
2022/01/04 07:35:17;;;;;;;2.38;0.60;;;10.70;99.90;;;;;;5084474;28;20040;-78
2022/01/04 07:37:43;;;;;;;2.40;0.65;;;10.70;99.90;;;;;;5103482;28;20291;-78
2022/01/04 07:40:09;;;;;;;4.18;1.00;;;10.70;99.90;;;;;;5104923;28;20028;-78
2022/01/04 07:42:35;;;;;;;2.97;0.70;;;10.70;99.90;;;;;;5104396;28;20024;-79
2022/01/04 07:45:02;;;;;;;1.63;0.60;;;10.60;99.90;;;;;;5086674;28;20036;-78
2022/01/04 07:47:28;;;;;;;2.08;0.70;;;10.70;99.90;;;;;;5085717;28;20337;-78
2022/01/04 07:49:54;;;;;;;3.30;0.55;;;10.70;99.90;;;;;;5104594;28;20036;-78
2022/01/04 07:52:20;;;;;;;2.28;0.65;;;10.80;99.90;;;;;;5098344;28;20043;-78
2022/01/04 07:54:45;;;;;;;2.72;0.70;;;10.90;99.90;;;;;;5086593;28;20231;-79
2022/01/04 07:57:11;;;;;;;2.90;0.82;;;10.80;99.90;;;;;;5105230;28;20043;-79
2022/01/04 07:59:37;;;;;;;3.05;0.80;;;10.90;99.90;;;;;;5104292;28;20024;-78
2022/01/04 08:02:03;;;;;;;1.38;0.43;;;11.10;99.90;;;;;;5063468;28;20043;-77
2022/01/04 08:04:29;;;;;;;1.13;0.40;;;11.30;99.90;;;;;;5066612;28;20040;-78
2022/01/04 08:06:55;;;;;;;1.50;0.50;;;11.70;99.90;;;;;;5072597;28;20272;-77
2022/01/04 08:09:20;;;;;;;2.33;0.60;;;12.00;99.90;;;;;;5103999;28;20076;-79
2022/01/04 08:11:46;;;;;;;1.90;0.50;;;12.10;99.90;;;;;;5104138;28;20060;-77
2022/01/04 08:14:13;;;;;;;2.97;0.60;;;12.30;99.90;;;;;;5104099;28;20221;-78
2022/01/04 08:16:39;;;;;;;1.88;0.50;;;12.30;99.90;;;;;;5085061;28;20059;-77
2022/01/04 08:19:05;;;;;;;1.30;0.47;;;12.30;99.90;;;;;;5096942;28;20299;-76
2022/01/04 08:21:31;;;;;;;1.67;0.50;;;12.20;99.90;;;;;;5065040;28;20103;-78
2022/01/04 08:23:57;;;;;;;2.22;0.60;;;12.30;99.90;;;;;;5065747;28;20316;-76
2022/01/04 08:26:23;;;;;;;2.45;0.60;;;12.30;99.90;;;;;;5083074;28;20045;-77
2022/01/04 08:28:49;;;;;;;1.42;0.50;;;12.30;99.90;;;;;;5083430;28;20024;-75
2022/01/04 08:31:15;;;;;;;2.03;0.40;;;12.20;99.90;;;;;;5092702;28;20109;-76
2022/01/04 08:33:41;;;;;;;2.78;0.40;;;12.40;99.90;;;;;;5103659;28;20229;-76
2022/01/04 08:36:10;;;;;;;2.15;0.63;;;12.30;99.90;;;;;;5103777;28;20051;-75
2022/01/04 08:38:36;;;;;;;2.35;0.80;;;12.40;99.90;;;;;;5103058;28;20397;-77
2022/01/04 08:41:02;;;;;;;1.90;0.65;;;12.40;99.90;;;;;;5085871;28;20036;-76
2022/01/04 08:43:28;;;;;;;2.15;0.60;;;12.60;99.90;;;;;;5103375;28;20024;-78
2022/01/04 08:45:54;;;;;;;1.23;0.40;;;12.40;99.90;;;;;;5103090;28;20036;-76
2022/01/04 08:48:19;;;;;;;1.45;0.40;;;12.40;99.90;;;;;;5103030;28;20028;-75
2022/01/04 08:50:46;;;;;;;1.40;0.35;;;12.50;99.90;;;;;;5103220;28;20024;-76
2022/01/04 08:53:13;;;;;;;5.40;0.60;;;12.60;99.90;;;;;;5085424;28;20065;-76
2022/01/04 08:55:38;;;;;;;1.13;0.40;;;12.60;99.90;;;;;;5095929;28;20097;-76
2022/01/04 08:58:05;;;;;;;2.50;0.50;;;12.60;99.90;;;;;;5082956;28;20242;-77
2022/01/04 09:00:31;;;;;;;2.58;0.77;;;12.60;99.90;;;;;;5082001;28;20037;-77
2022/01/04 09:02:59;;;;;;;1.25;0.50;;;12.60;99.90;;;;;;5082940;28;20139;-76
2022/01/04 09:05:26;;;;;;;1.73;0.50;;;12.60;99.90;;;;;;5082697;28;20036;-76
2022/01/04 09:07:52;;;;;;;4.07;0.80;;;12.70;99.90;;;;;;5064938;28;20323;-76
2022/01/04 09:10:18;;;;;;;2.15;0.60;;;12.70;99.90;;;;;;5075497;28;20063;-76
2022/01/04 09:13:05;;;;;;;1.98;0.50;;;12.80;99.90;;;;;;5085267;28;20078;-77
2022/01/04 09:15:56;;;;;;;1.80;0.50;;;12.70;99.90;;;;;;5101905;28;20343;-75
2022/01/04 09:21:23;;;;;;;1.50;0.50;;;12.80;99.90;;;;;;5072468;28;20036;-77
2022/01/04 09:23:54;;;;;;;1.48;0.40;;;12.90;99.90;;;;;;5045096;28;20381;-77
2022/01/04 09:26:21;;;;;;;2.40;0.60;;;12.90;99.90;;;;;;5061861;28;20111;-79
2022/01/04 09:28:47;;;;;;;1.92;0.50;;;12.80;99.90;;;;;;5062987;28;20364;-77
2022/01/04 09:31:18;;;;;;;1.77;0.60;;;12.90;99.90;;;;;;5043024;28;20073;-78
2022/01/04 09:33:44;;;;;;;2.33;0.50;;;12.60;99.90;;;;;;5062037;28;20373;-77
2022/01/04 09:36:10;;;;;;;2.20;0.60;;;12.50;99.90;;;;;;5044440;28;20315;-76
2022/01/04 09:38:36;;;;;;;1.23;0.55;;;12.30;99.90;;;;;;5061835;28;20025;-79
2022/01/04 09:41:02;;;;;;;2.35;0.68;;;12.00;99.90;;;;;;5045621;28;20036;-76
2022/01/04 09:43:28;;;;;;;2.63;0.68;;;12.00;99.90;;;;;;5062052;28;20307;-76
2022/01/04 09:45:54;;;;;;;2.80;0.68;;;12.10;99.90;;;;;;5047338;28;20044;-76
2022/01/04 09:48:20;;;;;;;3.72;0.80;;;12.20;99.90;;;;;;5044476;28;20032;-76
2022/01/04 09:50:48;;;;;;;2.53;0.73;;;12.30;99.90;;;;;;5058573;28;20040;-75
2022/01/04 09:53:22;;;;;;;1.52;0.52;;;12.40;99.90;;;;;;5064315;28;20227;-78
2022/01/04 09:55:50;;;;;;;3.47;0.60;;;12.50;99.90;;;;;;5060748;28;20028;-78
2022/01/04 09:58:18;;;;;;;1.25;0.50;;;12.50;99.90;;;;;;5068440;28;20286;-77
2022/01/04 10:00:44;;;;;;;2.35;0.45;;;12.60;99.90;;;;;;5081023;28;20041;-76
2022/01/04 10:03:15;;;;;;;1.50;0.52;;;12.50;99.90;;;;;;5059765;28;20048;-78
2022/01/04 10:05:42;;;;;;;2.95;0.60;;;12.60;99.90;;;;;;5047301;28;20263;-77
2022/01/04 10:08:10;;;;;;;2.35;0.75;;;12.60;99.90;;;;;;5064686;28;20044;-79
2022/01/04 10:10:37;;;;;;;2.90;0.80;;;12.60;99.90;;;;;;5074417;28;20063;-77
2022/01/04 10:13:09;;;;;;;1.88;0.80;;;12.60;99.90;;;;;;5081557;28;20290;-76
2022/01/04 10:15:47;;;;;;;3.42;0.73;;;12.70;99.90;;;;;;5080497;28;20103;-77
2022/01/04 10:18:13;;;;;;;2.45;0.77;;;12.70;99.90;;;;;;5081519;28;20024;-76
2022/01/04 10:21:08;;;;;;;3.88;0.88;;;12.70;99.90;;;;;;5080992;28;20044;-76
2022/01/04 10:23:44;;;;;;;2.33;0.80;;;12.70;99.90;;;;;;5051162;28;20067;-77
2022/01/04 10:26:09;;;;;;;3.20;0.75;;;12.70;99.90;;;;;;5053733;28;20111;-76
2022/01/04 10:28:44;;;;;;;1.48;0.70;;;12.80;99.90;;;;;;5074385;28;20032;-77
2022/01/04 10:31:20;;;;;;;1.85;0.80;;;12.90;99.90;;;;;;5080962;28;20055;-77
2022/01/04 10:33:52;;;;;;;2.65;0.70;;;12.90;99.90;;;;;;5081157;28;20037;-76
2022/01/04 10:36:21;;;;;;;3.00;0.82;;;12.90;99.90;;;;;;5080915;28;20013;-76
2022/01/04 10:38:48;;;;;;;1.98;0.57;;;13.00;99.90;;;;;;5067477;28;20120;-77
2022/01/04 10:41:23;;;;;;;3.83;2.30;;;13.00;99.90;;;;;;5059946;28;20028;-77
2022/01/04 10:44:02;;;;;;;2.03;0.68;;;13.00;99.90;;;;;;5064545;28;20024;-76
2022/01/04 10:46:32;;;;;;;2.03;0.70;;;13.10;99.90;;;;;;5064354;28;20041;-77
2022/01/04 10:48:59;;;;;;;3.40;1.20;;;13.10;99.90;;;;;;5047277;28;20040;-76
2022/01/04 10:51:27;;;;;;;3.85;0.90;;;13.10;99.90;;;;;;5047412;28;20036;-77
2022/01/04 10:54:00;;;;;;;3.92;0.73;;;13.10;99.90;;;;;;5065192;28;20036;-80
2022/01/04 10:56:28;;;;;;;2.33;0.90;;;13.00;99.90;;;;;;5064519;28;20037;-77
2022/01/04 10:58:56;;;;;;;2.00;0.73;;;13.00;99.90;;;;;;5079046;28;20057;-79
2022/01/04 11:01:27;;;;;;;2.53;0.93;;;13.00;99.90;;;;;;5084370;28;20041;-76
2022/01/04 11:03:56;;;;;;;2.10;0.70;;;13.00;99.90;;;;;;5084468;28;20021;-80
2022/01/04 11:06:29;;;;;;;3.13;0.82;;;13.00;99.90;;;;;;5065994;28;20024;-77
2022/01/04 11:08:55;;;;;;;3.47;0.80;;;13.00;99.90;;;;;;5067195;28;20242;-77
2022/01/04 11:11:21;;;;;;;1.67;0.70;;;13.00;99.90;;;;;;5047622;28;20025;-78
2022/01/04 11:13:54;;;;;;;3.22;1.02;;;13.10;99.90;;;;;;5064544;28;20053;-79
2022/01/04 11:16:22;;;;;;;3.03;0.98;;;13.10;99.90;;;;;;5064194;28;20037;-80
2022/01/04 11:18:50;;;;;;;4.55;1.33;;;13.20;99.90;;;;;;5064179;28;20029;-77
2022/01/04 11:21:29;;;;;;;2.35;0.93;;;13.30;99.90;;;;;;5064499;28;20307;-78
2022/01/04 11:23:58;;;;;;;;;;;13.30;99.90;;;;;;5065157;28;20025;-77
2022/01/04 11:26:25;;;;;;;3.63;0.82;;;13.30;99.90;;;;;;5075195;28;19919;-77
2022/01/04 11:28:53;;;;;;;4.15;1.60;;;13.30;99.90;;;;;;5084439;28;20060;-79
2022/01/04 11:31:50;;;;;;;5.00;1.10;;;13.30;99.90;;;;;;5049674;28;20041;-78
2022/01/04 11:34:31;;;;;;;3.83;0.95;;;13.20;99.90;;;;;;5084496;28;20028;-78
2022/01/04 11:36:57;;;;;;;3.40;1.08;;;13.20;99.90;;;;;;5084054;28;20082;-77
2022/01/04 11:39:42;;;;;;;2.92;0.90;;;13.10;99.90;;;;;;5084349;28;20039;-78
2022/01/04 11:42:10;;;;;;;1.83;0.90;;;13.00;99.90;;;;;;5066540;28;20040;-77
2022/01/04 11:44:54;;;;;;;2.67;1.35;;;13.00;99.90;;;;;;5089070;28;20094;-77
2022/01/04 11:47:48;;;;;;;3.55;1.20;;;12.90;99.90;;;;;;5086331;28;20349;-75
2022/01/04 11:50:20;;;;;;;5.05;1.50;;;12.80;99.90;;;;;;5065821;28;20040;-75
2022/01/04 11:52:55;;;;;;;2.78;1.08;;;12.80;99.90;;;;;;5083541;28;20032;-76
2022/01/04 11:55:21;;;;;;;3.33;1.20;;;12.80;99.90;;;;;;5048596;28;20039;-78
2022/01/04 11:57:49;;;;;;;2.75;1.20;;;12.80;99.90;;;;;;5087918;28;20012;-77
2022/01/04 12:00:30;;;;;;;3.63;1.10;;;12.80;99.90;;;;;;5103905;28;20255;-80
2022/01/04 12:03:10;;;;;;;4.10;1.10;;;12.80;99.90;;;;;;5104623;28;20025;-78
2022/01/04 12:05:39;;;;;;;3.33;1.30;;;12.90;99.90;;;;;;5086057;28;20077;-78
2022/01/04 12:08:19;;;;;;;2.53;1.20;;;12.80;99.90;;;;;;5098566;28;20087;-77
2022/01/04 12:10:45;;;;;;;4.63;1.58;;;12.80;99.90;;;;;;5071446;28;20670;-79
2022/01/04 12:13:21;;;;;;;4.97;1.30;;;12.80;99.90;;;;;;5084815;28;20034;-77
2022/01/04 12:15:49;;;;;;;3.40;1.17;;;12.80;99.90;;;;;;5082226;28;20037;-78
2022/01/04 12:18:23;;;;;;;3.63;1.15;;;12.80;99.90;;;;;;5083963;28;20322;-76
2022/01/04 12:20:51;;;;;;;6.13;1.20;;;12.80;99.90;;;;;;5084211;28;20040;-77
2022/01/04 12:23:23;;;;;;;2.88;1.10;;;12.80;99.90;;;;;;5085516;28;20055;-77
2022/01/04 12:26:11;;;;;;;3.78;1.20;;;12.70;99.90;;;;;;5082173;28;20040;-78
2022/01/04 12:28:40;;;;;;;3.30;1.60;;;12.60;99.90;;;;;;5078524;28;20040;-78
2022/01/04 12:31:16;;;;;;;;;;;12.60;99.90;;;;;;5083464;28;20067;-80
2022/01/04 12:33:46;;;;;;;2.78;1.50;;;12.50;99.90;;;;;;5083120;28;19947;-79
2022/01/04 12:36:31;;;;;;;3.35;1.20;;;12.50;99.90;;;;;;5083713;28;20033;-80
2022/01/04 12:39:06;;;;;;;3.60;1.25;;;12.50;99.90;;;;;;5083407;28;20024;-77
2022/01/04 12:41:44;;;;;;;3.35;1.20;;;12.40;99.90;;;;;;5083024;28;20092;-77
2022/01/04 12:44:11;;;;;;;2.53;1.15;;;12.40;99.90;;;;;;5083461;28;20037;-78
2022/01/04 12:46:42;;;;;;;2.80;1.20;;;12.50;99.90;;;;;;5082087;28;20323;-79
2022/01/04 12:49:17;;;;;;;3.42;1.05;;;12.50;99.90;;;;;;5091486;28;20020;-76
2022/01/04 12:51:50;;;;;;;3.08;1.17;;;12.50;99.90;;;;;;5102807;28;20038;-76
2022/01/04 12:54:18;;;;;;;4.43;1.25;;;12.50;99.90;;;;;;5102916;28;20115;-77
2022/01/04 12:56:50;;;;;;;4.40;1.58;;;12.50;99.90;;;;;;5084426;28;20050;-77
2022/01/04 12:59:22;;;;;;;4.32;1.52;;;12.40;99.90;;;;;;5084909;28;20098;-80